sensor_id;sensor_type;location;lat;lon;timestamp;pressure;altitude;pressure_sealevel;temperature;humidity
43553;BME280;29153;42.696;23.218;2023-01-28T00:01:27;93837.84;;;-0.03;96.44
43553;BME280;29153;42.696;23.218;2023-01-28T00:03:54;93829.64;;;-0.09;96.89
43553;BME280;29153;42.696;23.218;2023-01-28T00:06:22;93830.11;;;-0.01;96.65
43553;BME280;29153;42.696;23.218;2023-01-28T00:08:49;93839.02;;;-0.08;96.87
43553;BME280;29153;42.696;23.218;2023-01-28T00:11:17;93814.95;;;-0.24;97.03
43553;BME280;29153;42.696;23.218;2023-01-28T00:13:44;93839.85;;;-0.17;96.69
43553;BME280;29153;42.696;23.218;2023-01-28T00:16:12;93838.72;;;-0.21;97.09
43553;BME280;29153;42.696;23.218;2023-01-28T00:18:39;93852.31;;;-0.19;96.82
43553;BME280;29153;42.696;23.218;2023-01-28T00:21:10;93855.70;;;-0.18;97.32
43553;BME280;29153;42.696;23.218;2023-01-28T00:23:39;93853.48;;;-0.24;97.62
43553;BME280;29153;42.696;23.218;2023-01-28T00:26:10;93855.76;;;-0.16;97.43
43553;BME280;29153;42.696;23.218;2023-01-28T00:28:39;93857.14;;;-0.13;97.21
43553;BME280;29153;42.696;23.218;2023-01-28T00:31:13;93855.04;;;-0.14;96.88
43553;BME280;29153;42.696;23.218;2023-01-28T00:33:42;93857.64;;;-0.14;96.62
43553;BME280;29153;42.696;23.218;2023-01-28T00:36:10;93859.16;;;-0.15;96.77
43553;BME280;29153;42.696;23.218;2023-01-28T00:38:38;93858.78;;;-0.10;96.98
43553;BME280;29153;42.696;23.218;2023-01-28T00:41:10;93863.69;;;-0.11;96.95
43553;BME280;29153;42.696;23.218;2023-01-28T00:43:39;93865.78;;;-0.22;96.96
43553;BME280;29153;42.696;23.218;2023-01-28T00:46:08;93869.73;;;-0.19;96.97
43553;BME280;29153;42.696;23.218;2023-01-28T00:48:37;93874.94;;;-0.40;97.05
43553;BME280;29153;42.696;23.218;2023-01-28T00:51:05;93868.67;;;-0.30;97.49
43553;BME280;29153;42.696;23.218;2023-01-28T00:53:33;93871.22;;;-0.32;97.40
43553;BME280;29153;42.696;23.218;2023-01-28T00:56:03;93871.14;;;-0.26;97.19
43553;BME280;29153;42.696;23.218;2023-01-28T00:58:32;93867.30;;;-0.23;96.85
43553;BME280;29153;42.696;23.218;2023-01-28T01:01:11;93872.17;;;-0.15;96.65
43553;BME280;29153;42.696;23.218;2023-01-28T01:03:40;93870.15;;;-0.13;96.71
43553;BME280;29153;42.696;23.218;2023-01-28T01:06:08;93870.13;;;-0.34;96.94
43553;BME280;29153;42.696;23.218;2023-01-28T01:08:36;93872.36;;;-0.28;96.93
43553;BME280;29153;42.696;23.218;2023-01-28T01:11:06;93873.95;;;-0.27;96.97
43553;BME280;29153;42.696;23.218;2023-01-28T01:13:34;93874.33;;;-0.33;96.85
43553;BME280;29153;42.696;23.218;2023-01-28T01:16:05;93872.70;;;-0.25;97.14
43553;BME280;29153;42.696;23.218;2023-01-28T01:18:33;93874.17;;;-0.29;97.14
43553;BME280;29153;42.696;23.218;2023-01-28T01:21:02;93871.84;;;-0.39;97.66
43553;BME280;29153;42.696;23.218;2023-01-28T01:23:30;93873.03;;;-0.33;97.96
43553;BME280;29153;42.696;23.218;2023-01-28T01:25:58;93876.82;;;-0.47;97.87
43553;BME280;29153;42.696;23.218;2023-01-28T01:28:25;93882.48;;;-0.50;97.94
43553;BME280;29153;42.696;23.218;2023-01-28T01:31:01;93883.22;;;-0.52;98.47
43553;BME280;29153;42.696;23.218;2023-01-28T01:33:30;93882.58;;;-0.57;98.67
43553;BME280;29153;42.696;23.218;2023-01-28T01:35:57;93879.22;;;-0.46;98.42
43553;BME280;29153;42.696;23.218;2023-01-28T01:38:26;93883.46;;;-0.42;97.84
43553;BME280;29153;42.696;23.218;2023-01-28T01:40:58;93883.63;;;-0.46;98.38
43553;BME280;29153;42.696;23.218;2023-01-28T01:46:14;93884.07;;;-0.49;99.00
43553;BME280;29153;42.696;23.218;2023-01-28T01:48:43;93888.61;;;-0.44;98.61
43553;BME280;29153;42.696;23.218;2023-01-28T01:51:13;93885.48;;;-0.35;98.07
43553;BME280;29153;42.696;23.218;2023-01-28T01:53:43;93888.66;;;-0.42;98.40
43553;BME280;29153;42.696;23.218;2023-01-28T01:56:13;93885.91;;;-0.38;98.54
43553;BME280;29153;42.696;23.218;2023-01-28T01:58:44;93890.55;;;-0.40;98.44
43553;BME280;29153;42.696;23.218;2023-01-28T02:01:12;93885.21;;;-0.45;98.61
43553;BME280;29153;42.696;23.218;2023-01-28T02:06:30;93888.80;;;-0.37;98.87
43553;BME280;29153;42.696;23.218;2023-01-28T02:08:58;93893.80;;;-0.35;98.17
43553;BME280;29153;42.696;23.218;2023-01-28T02:11:28;93888.16;;;-0.41;98.70
43553;BME280;29153;42.696;23.218;2023-01-28T02:13:58;93894.80;;;-0.36;97.84
43553;BME280;29153;42.696;23.218;2023-01-28T02:16:27;93896.23;;;-0.31;97.87
43553;BME280;29153;42.696;23.218;2023-01-28T02:18:55;93890.13;;;-0.46;97.95
43553;BME280;29153;42.696;23.218;2023-01-28T02:27:05;93902.33;;;-0.47;98.79
43553;BME280;29153;42.696;23.218;2023-01-28T02:29:37;93901.13;;;-0.53;99.00
43553;BME280;29153;42.696;23.218;2023-01-28T02:32:09;93898.33;;;-0.52;98.83
43553;BME280;29153;42.696;23.218;2023-01-28T02:34:38;93905.59;;;-0.51;98.67
43553;BME280;29153;42.696;23.218;2023-01-28T02:39:53;93902.16;;;-0.33;97.71
43553;BME280;29153;42.696;23.218;2023-01-28T02:44:52;93904.55;;;-0.32;97.47
43553;BME280;29153;42.696;23.218;2023-01-28T02:47:19;93899.34;;;-0.32;97.39
43553;BME280;29153;42.696;23.218;2023-01-28T02:50:11;93896.15;;;-0.34;97.42
43553;BME280;29153;42.696;23.218;2023-01-28T02:55:55;93902.66;;;-0.34;97.37
43553;BME280;29153;42.696;23.218;2023-01-28T03:01:44;93897.59;;;-0.29;97.40
43553;BME280;29153;42.696;23.218;2023-01-28T03:06:30;93908.10;;;-0.35;97.23
43553;BME280;29153;42.696;23.218;2023-01-28T03:09:03;93902.10;;;-0.36;96.75
43553;BME280;29153;42.696;23.218;2023-01-28T03:15:52;93904.75;;;-0.33;97.45
43553;BME280;29153;42.696;23.218;2023-01-28T03:21:11;93913.94;;;-0.31;97.37
43553;BME280;29153;42.696;23.218;2023-01-28T03:27:04;93918.67;;;-0.19;96.64
43553;BME280;29153;42.696;23.218;2023-01-28T03:29:50;93917.69;;;-0.27;96.83
43553;BME280;29153;42.696;23.218;2023-01-28T03:32:38;93916.78;;;-0.21;95.74
43553;BME280;29153;42.696;23.218;2023-01-28T03:35:27;93920.58;;;-0.26;96.12
43553;BME280;29153;42.696;23.218;2023-01-28T03:38:14;93919.06;;;-0.33;96.00
43553;BME280;29153;42.696;23.218;2023-01-28T03:41:00;93912.30;;;-0.34;96.33
43553;BME280;29153;42.696;23.218;2023-01-28T03:43:28;93921.25;;;-0.30;96.65
43553;BME280;29153;42.696;23.218;2023-01-28T03:45:56;93925.36;;;-0.32;97.16
43553;BME280;29153;42.696;23.218;2023-01-28T03:48:24;93918.83;;;-0.23;95.91
43553;BME280;29153;42.696;23.218;2023-01-28T03:50:57;93922.62;;;-0.37;95.71
43553;BME280;29153;42.696;23.218;2023-01-28T03:53:22;93920.17;;;-0.41;96.46
43553;BME280;29153;42.696;23.218;2023-01-28T03:55:51;93927.84;;;-0.46;96.95
43553;BME280;29153;42.696;23.218;2023-01-28T03:58:20;93923.38;;;-0.48;97.25
43553;BME280;29153;42.696;23.218;2023-01-28T04:00:48;93928.34;;;-0.47;96.77
43553;BME280;29153;42.696;23.218;2023-01-28T04:03:18;93934.93;;;-0.44;96.60
43553;BME280;29153;42.696;23.218;2023-01-28T04:05:57;93933.35;;;-0.54;96.73
43553;BME280;29153;42.696;23.218;2023-01-28T04:08:25;93931.20;;;-0.57;97.23
43553;BME280;29153;42.696;23.218;2023-01-28T04:10:53;93938.64;;;-0.52;97.38
43553;BME280;29153;42.696;23.218;2023-01-28T04:13:21;93936.30;;;-0.51;96.88
43553;BME280;29153;42.696;23.218;2023-01-28T04:15:48;93937.10;;;-0.50;96.61
43553;BME280;29153;42.696;23.218;2023-01-28T04:18:16;93945.20;;;-0.58;97.37
43553;BME280;29153;42.696;23.218;2023-01-28T04:20:47;93949.41;;;-0.57;97.81
43553;BME280;29153;42.696;23.218;2023-01-28T04:23:15;93944.20;;;-0.57;97.75
43553;BME280;29153;42.696;23.218;2023-01-28T04:25:42;93951.56;;;-0.54;97.62
43553;BME280;29153;42.696;23.218;2023-01-28T04:28:10;93952.84;;;-0.45;97.68
43553;BME280;29153;42.696;23.218;2023-01-28T04:30:38;93953.94;;;-0.43;97.64
43553;BME280;29153;42.696;23.218;2023-01-28T04:33:05;93958.50;;;-0.57;98.03
43553;BME280;29153;42.696;23.218;2023-01-28T04:35:33;93957.06;;;-0.71;98.43
43553;BME280;29153;42.696;23.218;2023-01-28T04:38:00;93956.50;;;-0.64;98.55
43553;BME280;29153;42.696;23.218;2023-01-28T04:40:28;93962.41;;;-0.66;98.62
43553;BME280;29153;42.696;23.218;2023-01-28T04:42:56;93963.00;;;-0.64;98.50
43553;BME280;29153;42.696;23.218;2023-01-28T04:45:24;93967.97;;;-0.63;98.77
43553;BME280;29153;42.696;23.218;2023-01-28T04:47:51;93966.61;;;-0.65;98.46
43553;BME280;29153;42.696;23.218;2023-01-28T04:50:19;93980.77;;;-0.70;98.78
43553;BME280;29153;42.696;23.218;2023-01-28T04:52:46;93977.57;;;-0.63;98.57
43553;BME280;29153;42.696;23.218;2023-01-28T04:55:14;93987.17;;;-0.64;98.38
43553;BME280;29153;42.696;23.218;2023-01-28T04:57:41;93978.58;;;-0.55;98.29
43553;BME280;29153;42.696;23.218;2023-01-28T05:00:09;93982.97;;;-0.47;98.32
43553;BME280;29153;42.696;23.218;2023-01-28T05:02:37;93978.27;;;-0.47;98.19
43553;BME280;29153;42.696;23.218;2023-01-28T05:05:05;93984.16;;;-0.52;98.01
43553;BME280;29153;42.696;23.218;2023-01-28T05:07:34;93987.52;;;-0.51;97.80
43553;BME280;29153;42.696;23.218;2023-01-28T05:10:02;93985.23;;;-0.68;97.88
43553;BME280;29153;42.696;23.218;2023-01-28T05:12:30;93964.87;;;-0.71;97.84
43553;BME280;29153;42.696;23.218;2023-01-28T05:14:59;93993.77;;;-0.52;97.63
43553;BME280;29153;42.696;23.218;2023-01-28T05:17:27;93997.52;;;-0.48;97.54
43553;BME280;29153;42.696;23.218;2023-01-28T05:19:55;94002.57;;;-0.53;97.36
43553;BME280;29153;42.696;23.218;2023-01-28T05:22:22;94000.27;;;-0.43;96.39
43553;BME280;29153;42.696;23.218;2023-01-28T05:24:50;94000.77;;;-0.53;96.46
43553;BME280;29153;42.696;23.218;2023-01-28T05:27:17;94008.36;;;-0.69;96.97
43553;BME280;29153;42.696;23.218;2023-01-28T05:29:45;94005.32;;;-0.57;96.99
43553;BME280;29153;42.696;23.218;2023-01-28T05:32:12;94003.52;;;-0.57;96.77
43553;BME280;29153;42.696;23.218;2023-01-28T05:34:40;94005.67;;;-0.63;96.73
43553;BME280;29153;42.696;23.218;2023-01-28T05:37:08;94008.06;;;-0.70;96.84
43553;BME280;29153;42.696;23.218;2023-01-28T05:39:35;94011.53;;;-0.58;96.62
43553;BME280;29153;42.696;23.218;2023-01-28T05:42:03;94014.48;;;-0.64;96.51
43553;BME280;29153;42.696;23.218;2023-01-28T05:44:30;94013.56;;;-0.69;96.63
43553;BME280;29153;42.696;23.218;2023-01-28T05:46:58;94012.53;;;-0.68;97.06
43553;BME280;29153;42.696;23.218;2023-01-28T05:49:25;94021.22;;;-0.65;96.59
43553;BME280;29153;42.696;23.218;2023-01-28T05:51:53;94030.47;;;-0.69;96.94
43553;BME280;29153;42.696;23.218;2023-01-28T05:54:20;94021.88;;;-0.61;97.06
43553;BME280;29153;42.696;23.218;2023-01-28T05:56:48;94026.42;;;-0.56;96.64
43553;BME280;29153;42.696;23.218;2023-01-28T05:59:16;94025.89;;;-0.56;96.46
43553;BME280;29153;42.696;23.218;2023-01-28T06:01:43;94023.44;;;-0.51;96.08
43553;BME280;29153;42.696;23.218;2023-01-28T06:04:11;94023.17;;;-0.52;96.12
43553;BME280;29153;42.696;23.218;2023-01-28T06:06:38;94024.89;;;-0.55;96.50
43553;BME280;29153;42.696;23.218;2023-01-28T06:09:06;94031.33;;;-0.57;95.69
43553;BME280;29153;42.696;23.218;2023-01-28T06:11:34;94038.33;;;-0.67;95.74
43553;BME280;29153;42.696;23.218;2023-01-28T06:14:01;94045.78;;;-0.61;96.06
43553;BME280;29153;42.696;23.218;2023-01-28T06:16:29;94047.52;;;-0.64;96.78
43553;BME280;29153;42.696;23.218;2023-01-28T06:18:56;94048.80;;;-0.46;96.73
43553;BME280;29153;42.696;23.218;2023-01-28T06:21:24;94054.36;;;-0.42;96.09
43553;BME280;29153;42.696;23.218;2023-01-28T06:23:51;94058.05;;;-0.50;95.99
43553;BME280;29153;42.696;23.218;2023-01-28T06:26:19;94061.95;;;-0.50;96.25
43553;BME280;29153;42.696;23.218;2023-01-28T06:28:46;94067.46;;;-0.40;95.38
43553;BME280;29153;42.696;23.218;2023-01-28T06:31:14;94072.50;;;-0.63;95.46
43553;BME280;29153;42.696;23.218;2023-01-28T06:33:42;94077.80;;;-0.52;95.40
43553;BME280;29153;42.696;23.218;2023-01-28T06:36:09;94074.31;;;-0.46;95.46
43553;BME280;29153;42.696;23.218;2023-01-28T06:38:38;94078.44;;;-0.56;95.40
43553;BME280;29153;42.696;23.218;2023-01-28T06:41:05;94081.02;;;-0.47;95.04
43553;BME280;29153;42.696;23.218;2023-01-28T06:43:32;94089.42;;;-0.45;94.92
43553;BME280;29153;42.696;23.218;2023-01-28T06:46:00;94096.27;;;-0.51;95.21
43553;BME280;29153;42.696;23.218;2023-01-28T06:48:28;94094.92;;;-0.44;95.34
43553;BME280;29153;42.696;23.218;2023-01-28T06:50:55;94093.83;;;-0.46;96.04
43553;BME280;29153;42.696;23.218;2023-01-28T06:53:23;94102.80;;;-0.32;95.06
43553;BME280;29153;42.696;23.218;2023-01-28T06:55:50;94107.28;;;-0.39;94.77
43553;BME280;29153;42.696;23.218;2023-01-28T06:58:18;94108.34;;;-0.47;95.33
43553;BME280;29153;42.696;23.218;2023-01-28T07:00:45;94112.32;;;-0.54;95.43
43553;BME280;29153;42.696;23.218;2023-01-28T07:03:13;94116.14;;;-0.47;95.53
43553;BME280;29153;42.696;23.218;2023-01-28T07:05:41;94112.02;;;-0.55;95.77
43553;BME280;29153;42.696;23.218;2023-01-28T07:08:08;94121.34;;;-0.47;96.05
43553;BME280;29153;42.696;23.218;2023-01-28T07:10:36;94114.58;;;-0.48;95.96
43553;BME280;29153;42.696;23.218;2023-01-28T07:13:03;94121.45;;;-0.35;95.92
43553;BME280;29153;42.696;23.218;2023-01-28T07:15:31;94128.80;;;-0.41;95.92
43553;BME280;29153;42.696;23.218;2023-01-28T07:17:58;94127.66;;;-0.36;95.71
43553;BME280;29153;42.696;23.218;2023-01-28T07:20:26;94129.02;;;-0.34;95.64
43553;BME280;29153;42.696;23.218;2023-01-28T07:22:53;94135.02;;;-0.33;95.11
43553;BME280;29153;42.696;23.218;2023-01-28T07:25:21;94131.87;;;-0.26;94.57
43553;BME280;29153;42.696;23.218;2023-01-28T07:27:51;94143.19;;;-0.30;94.72
43553;BME280;29153;42.696;23.218;2023-01-28T07:30:19;94137.72;;;-0.22;94.81
43553;BME280;29153;42.696;23.218;2023-01-28T07:32:52;94147.05;;;-0.14;94.74
43553;BME280;29153;42.696;23.218;2023-01-28T07:35:20;94147.85;;;-0.05;94.69
43553;BME280;29153;42.696;23.218;2023-01-28T07:40:21;94146.17;;;0.01;93.50
43553;BME280;29153;42.696;23.218;2023-01-28T07:42:48;94151.31;;;-0.02;93.88
43553;BME280;29153;42.696;23.218;2023-01-28T07:45:16;94156.02;;;0.08;93.68
43553;BME280;29153;42.696;23.218;2023-01-28T07:47:44;94157.73;;;0.14;93.39
43553;BME280;29153;42.696;23.218;2023-01-28T07:50:12;94158.88;;;0.27;93.23
43553;BME280;29153;42.696;23.218;2023-01-28T07:52:39;94159.23;;;0.40;92.54
43553;BME280;29153;42.696;23.218;2023-01-28T07:55:09;94161.92;;;0.42;91.81
43553;BME280;29153;42.696;23.218;2023-01-28T08:00:19;94162.52;;;0.56;91.11
43553;BME280;29153;42.696;23.218;2023-01-28T08:02:47;94174.73;;;0.65;90.75
43553;BME280;29153;42.696;23.218;2023-01-28T08:05:17;94171.06;;;0.63;90.15
43553;BME280;29153;42.696;23.218;2023-01-28T08:07:45;94179.28;;;0.69;90.37
43553;BME280;29153;42.696;23.218;2023-01-28T08:10:16;94177.09;;;0.55;89.11
43553;BME280;29153;42.696;23.218;2023-01-28T08:12:57;94186.56;;;0.58;89.58
43553;BME280;29153;42.696;23.218;2023-01-28T08:15:25;94185.20;;;0.56;89.59
43553;BME280;29153;42.696;23.218;2023-01-28T08:17:55;94188.17;;;0.50;89.83
43553;BME280;29153;42.696;23.218;2023-01-28T08:20:27;94186.22;;;0.45;90.12
43553;BME280;29153;42.696;23.218;2023-01-28T08:23:10;94190.92;;;0.55;89.55
43553;BME280;29153;42.696;23.218;2023-01-28T08:25:37;94199.74;;;0.54;89.08
43553;BME280;29153;42.696;23.218;2023-01-28T08:28:05;94199.45;;;0.44;89.63
43553;BME280;29153;42.696;23.218;2023-01-28T08:30:33;94195.48;;;0.51;89.31
43553;BME280;29153;42.696;23.218;2023-01-28T08:33:03;94199.23;;;0.64;89.67
43553;BME280;29153;42.696;23.218;2023-01-28T08:35:35;94192.05;;;0.68;89.28
43553;BME280;29153;42.696;23.218;2023-01-28T08:38:03;94195.20;;;0.79;88.35
43553;BME280;29153;42.696;23.218;2023-01-28T08:40:32;94202.16;;;0.85;88.57
43553;BME280;29153;42.696;23.218;2023-01-28T08:43:00;94197.18;;;0.96;88.33
43553;BME280;29153;42.696;23.218;2023-01-28T08:45:28;94196.89;;;0.95;88.00
43553;BME280;29153;42.696;23.218;2023-01-28T08:48:04;94202.71;;;0.87;88.05
43553;BME280;29153;42.696;23.218;2023-01-28T08:50:30;94200.69;;;0.89;87.68
43553;BME280;29153;42.696;23.218;2023-01-28T08:53:03;94207.30;;;1.04;87.41
43553;BME280;29153;42.696;23.218;2023-01-28T08:55:32;94203.94;;;0.94;87.71
43553;BME280;29153;42.696;23.218;2023-01-28T08:58:06;94213.28;;;0.93;87.73
43553;BME280;29153;42.696;23.218;2023-01-28T09:00:34;94203.52;;;1.09;87.54
43553;BME280;29153;42.696;23.218;2023-01-28T09:03:01;94202.23;;;1.20;87.65
43553;BME280;29153;42.696;23.218;2023-01-28T09:05:29;94203.34;;;1.33;88.04
43553;BME280;29153;42.696;23.218;2023-01-28T09:08:02;94180.67;;;1.13;86.66
43553;BME280;29153;42.696;23.218;2023-01-28T09:10:30;94205.77;;;1.26;86.86
43553;BME280;29153;42.696;23.218;2023-01-28T09:12:57;94209.88;;;1.13;86.31
43553;BME280;29153;42.696;23.218;2023-01-28T09:15:25;94204.28;;;1.18;87.62
43553;BME280;29153;42.696;23.218;2023-01-28T09:17:59;94211.50;;;1.25;87.43
43553;BME280;29153;42.696;23.218;2023-01-28T09:20:27;94209.86;;;1.33;86.84
43553;BME280;29153;42.696;23.218;2023-01-28T09:22:54;94207.22;;;1.10;87.38
43553;BME280;29153;42.696;23.218;2023-01-28T09:25:22;94210.53;;;1.29;87.00
43553;BME280;29153;42.696;23.218;2023-01-28T09:27:49;94215.72;;;1.38;86.32
43553;BME280;29153;42.696;23.218;2023-01-28T09:30:17;94212.39;;;1.40;86.03
43553;BME280;29153;42.696;23.218;2023-01-28T09:32:48;94207.20;;;1.31;86.05
43553;BME280;29153;42.696;23.218;2023-01-28T09:35:13;94214.22;;;1.19;86.30
43553;BME280;29153;42.696;23.218;2023-01-28T09:37:41;94211.75;;;1.35;85.77
43553;BME280;29153;42.696;23.218;2023-01-28T09:40:18;94208.48;;;1.40;86.50
43553;BME280;29153;42.696;23.218;2023-01-28T09:45:50;94210.80;;;1.51;86.27
43553;BME280;29153;42.696;23.218;2023-01-28T09:48:32;94212.57;;;1.59;85.14
43553;BME280;29153;42.696;23.218;2023-01-28T09:50:51;94208.15;;;1.60;85.43
43553;BME280;29153;42.696;23.218;2023-01-28T09:53:31;94213.88;;;1.59;85.34
43553;BME280;29153;42.696;23.218;2023-01-28T09:58:33;94209.08;;;1.65;85.46
43553;BME280;29153;42.696;23.218;2023-01-28T10:09:28;94205.52;;;1.92;85.19
43553;BME280;29153;42.696;23.218;2023-01-28T10:12:02;94199.66;;;1.88;85.66
43553;BME280;29153;42.696;23.218;2023-01-28T10:14:37;94207.59;;;1.93;85.90
43553;BME280;29153;42.696;23.218;2023-01-28T10:17:30;94204.23;;;2.06;85.05
43553;BME280;29153;42.696;23.218;2023-01-28T10:22:34;94202.25;;;1.64;86.42
43553;BME280;29153;42.696;23.218;2023-01-28T10:25:04;94204.52;;;1.84;86.51
43553;BME280;29153;42.696;23.218;2023-01-28T10:27:33;94209.53;;;1.62;84.95
43553;BME280;29153;42.696;23.218;2023-01-28T10:30:24;94207.35;;;1.59;85.90
43553;BME280;29153;42.696;23.218;2023-01-28T10:33:03;94210.63;;;1.55;85.85
43553;BME280;29153;42.696;23.218;2023-01-28T10:35:41;94205.53;;;1.48;85.47
43553;BME280;29153;42.696;23.218;2023-01-28T10:38:14;94208.36;;;1.47;87.12
43553;BME280;29153;42.696;23.218;2023-01-28T10:40:40;94206.00;;;1.57;86.10
43553;BME280;29153;42.696;23.218;2023-01-28T10:43:09;94207.98;;;1.75;85.13
43553;BME280;29153;42.696;23.218;2023-01-28T10:45:56;94207.33;;;1.92;84.65
43553;BME280;29153;42.696;23.218;2023-01-28T10:48:31;94200.20;;;2.01;86.11
43553;BME280;29153;42.696;23.218;2023-01-28T10:51:01;94202.76;;;2.22;85.07
43553;BME280;29153;42.696;23.218;2023-01-28T10:53:42;94207.64;;;2.44;83.24
43553;BME280;29153;42.696;23.218;2023-01-28T10:56:22;94200.92;;;2.34;81.80
43553;BME280;29153;42.696;23.218;2023-01-28T10:59:03;94202.70;;;2.45;83.00
43553;BME280;29153;42.696;23.218;2023-01-28T11:01:46;94209.34;;;2.50;80.92
43553;BME280;29153;42.696;23.218;2023-01-28T11:04:25;94207.13;;;2.56;81.63
43553;BME280;29153;42.696;23.218;2023-01-28T11:07:00;94174.70;;;2.43;81.53
43553;BME280;29153;42.696;23.218;2023-01-28T11:09:26;94197.97;;;2.56;81.39
43553;BME280;29153;42.696;23.218;2023-01-28T11:11:54;94204.59;;;2.47;81.93
43553;BME280;29153;42.696;23.218;2023-01-28T11:14:25;94205.71;;;2.51;81.81
43553;BME280;29153;42.696;23.218;2023-01-28T11:16:55;94208.22;;;2.46;81.57
43553;BME280;29153;42.696;23.218;2023-01-28T11:19:33;94202.33;;;2.39;81.01
43553;BME280;29153;42.696;23.218;2023-01-28T11:22:00;94208.95;;;2.07;81.29
43553;BME280;29153;42.696;23.218;2023-01-28T11:24:30;94201.27;;;2.26;81.34
43553;BME280;29153;42.696;23.218;2023-01-28T11:27:06;94190.82;;;2.14;82.15
43553;BME280;29153;42.696;23.218;2023-01-28T11:29:33;94197.33;;;2.38;82.86
43553;BME280;29153;42.696;23.218;2023-01-28T11:32:01;94193.58;;;2.59;82.16
43553;BME280;29153;42.696;23.218;2023-01-28T11:34:32;94194.05;;;2.70;81.85
43553;BME280;29153;42.696;23.218;2023-01-28T11:37:13;94195.98;;;2.49;80.90
43553;BME280;29153;42.696;23.218;2023-01-28T11:39:41;94194.05;;;2.31;81.16
43553;BME280;29153;42.696;23.218;2023-01-28T11:42:17;94194.23;;;2.52;82.12
43553;BME280;29153;42.696;23.218;2023-01-28T11:44:45;94187.33;;;2.60;81.71
43553;BME280;29153;42.696;23.218;2023-01-28T11:49:50;94192.27;;;2.59;80.94
43553;BME280;29153;42.696;23.218;2023-01-28T11:55:36;94190.49;;;2.62;80.21
43553;BME280;29153;42.696;23.218;2023-01-28T12:00:51;94186.97;;;2.17;80.54
43553;BME280;29153;42.696;23.218;2023-01-28T12:08:39;94189.55;;;2.54;80.15
43553;BME280;29153;42.696;23.218;2023-01-28T12:14:03;94188.03;;;2.56;79.92
43553;BME280;29153;42.696;23.218;2023-01-28T12:24:37;94194.53;;;2.82;80.28
43553;BME280;29153;42.696;23.218;2023-01-28T12:32:48;94191.95;;;2.56;80.05
43553;BME280;29153;42.696;23.218;2023-01-28T12:35:28;94189.05;;;2.55;81.99
43553;BME280;29153;42.696;23.218;2023-01-28T12:46:08;94198.30;;;2.34;83.13
43553;BME280;29153;42.696;23.218;2023-01-28T12:48:40;94196.34;;;2.41;82.30
43553;BME280;29153;42.696;23.218;2023-01-28T12:51:20;94203.20;;;2.56;83.33
43553;BME280;29153;42.696;23.218;2023-01-28T12:54:00;94199.61;;;2.48;82.04
43553;BME280;29153;42.696;23.218;2023-01-28T12:56:36;94206.73;;;2.50;82.12
43553;BME280;29153;42.696;23.218;2023-01-28T12:59:10;94205.38;;;2.62;82.09
43553;BME280;29153;42.696;23.218;2023-01-28T13:01:48;94205.45;;;2.64;81.71
43553;BME280;29153;42.696;23.218;2023-01-28T13:04:22;94208.94;;;2.56;82.57
43553;BME280;29153;42.696;23.218;2023-01-28T13:06:57;94208.25;;;2.60;83.52
43553;BME280;29153;42.696;23.218;2023-01-28T13:09:26;94208.33;;;2.51;82.64
43553;BME280;29153;42.696;23.218;2023-01-28T13:11:57;94214.64;;;2.67;82.18
43553;BME280;29153;42.696;23.218;2023-01-28T13:14:31;94221.22;;;2.55;82.15
43553;BME280;29153;42.696;23.218;2023-01-28T13:17:07;94222.02;;;2.44;82.12
43553;BME280;29153;42.696;23.218;2023-01-28T13:19:35;94229.67;;;2.34;82.57
43553;BME280;29153;42.696;23.218;2023-01-28T13:21:55;94227.27;;;2.33;82.98
43553;BME280;29153;42.696;23.218;2023-01-28T13:24:29;94223.05;;;2.17;83.00
43553;BME280;29153;42.696;23.218;2023-01-28T13:26:55;94226.43;;;2.29;83.80
43553;BME280;29153;42.696;23.218;2023-01-28T13:29:32;94229.23;;;2.14;83.57
43553;BME280;29153;42.696;23.218;2023-01-28T13:32:02;94223.78;;;2.04;84.22
43553;BME280;29153;42.696;23.218;2023-01-28T13:34:33;94231.41;;;2.05;83.19
43553;BME280;29153;42.696;23.218;2023-01-28T13:37:03;94230.77;;;2.01;83.55
43553;BME280;29153;42.696;23.218;2023-01-28T13:39:34;94237.98;;;1.96;84.72
43553;BME280;29153;42.696;23.218;2023-01-28T13:42:19;94242.41;;;1.96;84.94
43553;BME280;29153;42.696;23.218;2023-01-28T13:44:39;94244.53;;;1.75;84.87
43553;BME280;29153;42.696;23.218;2023-01-28T13:47:17;94238.63;;;1.68;85.30
43553;BME280;29153;42.696;23.218;2023-01-28T13:49:50;94236.34;;;1.49;86.78
43553;BME280;29153;42.696;23.218;2023-01-28T13:52:22;94242.23;;;1.44;86.84
43553;BME280;29153;42.696;23.218;2023-01-28T13:54:58;94246.47;;;1.36;86.46
43553;BME280;29153;42.696;23.218;2023-01-28T13:57:44;94248.45;;;1.31;86.65
43553;BME280;29153;42.696;23.218;2023-01-28T14:03:20;94255.05;;;1.25;87.88
43553;BME280;29153;42.696;23.218;2023-01-28T14:14:32;94264.13;;;1.22;88.42
43553;BME280;29153;42.696;23.218;2023-01-28T14:19:49;94272.59;;;1.27;89.29
43553;BME280;29153;42.696;23.218;2023-01-28T14:22:19;94280.65;;;1.16;88.66
43553;BME280;29153;42.696;23.218;2023-01-28T14:24:47;94282.55;;;1.18;87.64
43553;BME280;29153;42.696;23.218;2023-01-28T14:27:21;94277.64;;;1.10;88.65
43553;BME280;29153;42.696;23.218;2023-01-28T14:32:58;94288.89;;;0.93;89.66
43553;BME280;29153;42.696;23.218;2023-01-28T14:35:30;94287.44;;;0.97;89.45
43553;BME280;29153;42.696;23.218;2023-01-28T14:38:00;94286.13;;;1.06;89.03
43553;BME280;29153;42.696;23.218;2023-01-28T14:40:29;94289.23;;;1.05;88.95
43553;BME280;29153;42.696;23.218;2023-01-28T14:42:58;94287.15;;;0.86;89.26
43553;BME280;29153;42.696;23.218;2023-01-28T14:45:49;94293.97;;;0.78;90.11
43553;BME280;29153;42.696;23.218;2023-01-28T14:48:23;94294.52;;;0.99;89.81
43553;BME280;29153;42.696;23.218;2023-01-28T14:59:44;94303.83;;;0.58;91.17
43553;BME280;29153;42.696;23.218;2023-01-28T15:02:27;94311.95;;;0.59;91.74
43553;BME280;29153;42.696;23.218;2023-01-28T15:04:51;94310.77;;;0.37;91.64
43553;BME280;29153;42.696;23.218;2023-01-28T15:07:26;94318.64;;;0.39;92.30
43553;BME280;29153;42.696;23.218;2023-01-28T15:12:35;94316.70;;;0.44;92.55
43553;BME280;29153;42.696;23.218;2023-01-28T15:18:04;94324.45;;;0.41;92.72
43553;BME280;29153;42.696;23.218;2023-01-28T15:20:32;94329.44;;;0.34;92.18